createdAt,value
2018-06-10T00:00:57.858Z,0.00
2018-06-10T00:01:57.859Z,0.00
2018-06-10T00:02:57.859Z,0.00
2018-06-10T00:03:57.859Z,0.00
2018-06-10T00:04:57.858Z,0.00
2018-06-10T00:05:57.860Z,0.00
2018-06-10T00:06:57.859Z,0.00
2018-06-10T00:07:57.859Z,0.00
2018-06-10T00:08:57.863Z,0.00
2018-06-10T00:09:57.859Z,0.00
2018-06-10T00:10:57.860Z,0.00
2018-06-10T00:11:57.861Z,0.00
2018-06-10T00:12:57.860Z,0.00
2018-06-10T00:13:57.859Z,0.00
2018-06-10T00:14:57.861Z,0.00
2018-06-10T00:15:57.860Z,0.00
2018-06-10T00:16:57.863Z,0.00
2018-06-10T00:17:57.861Z,0.00
2018-06-10T00:18:57.861Z,0.00
2018-06-10T00:19:57.861Z,0.00
2018-06-10T00:20:57.861Z,0.00
2018-06-10T00:21:57.863Z,0.00
2018-06-10T00:22:57.865Z,0.00
2018-06-10T00:23:57.861Z,0.00
2018-06-10T00:24:57.860Z,0.00
2018-06-10T00:25:57.860Z,0.00
2018-06-10T00:26:57.861Z,0.00
2018-06-10T00:27:57.861Z,0.00
2018-06-10T00:28:57.861Z,0.00
2018-06-10T00:29:57.861Z,0.00
2018-06-10T00:30:57.860Z,0.00
2018-06-10T00:31:57.861Z,0.00
2018-06-10T00:32:57.859Z,0.00
2018-06-10T00:33:57.860Z,0.00
2018-06-10T00:34:57.859Z,0.00
2018-06-10T00:35:57.859Z,0.00
2018-06-10T00:36:57.858Z,0.00
2018-06-10T00:37:57.858Z,0.00
2018-06-10T00:38:57.858Z,0.00
2018-06-10T00:39:57.857Z,0.00
2018-06-10T00:40:57.855Z,0.00
2018-06-10T00:41:57.855Z,0.00
2018-06-10T00:42:57.855Z,0.00
2018-06-10T00:43:57.854Z,0.00
2018-06-10T00:44:57.853Z,0.00
2018-06-10T00:45:57.853Z,0.00
2018-06-10T00:46:57.852Z,0.00
2018-06-10T00:47:57.854Z,0.00
2018-06-10T00:48:57.850Z,0.00
2018-06-10T00:49:57.850Z,0.00
2018-06-10T00:50:57.849Z,0.00
2018-06-10T00:51:57.849Z,0.00
2018-06-10T00:52:57.847Z,0.00
2018-06-10T00:53:57.847Z,0.00
2018-06-10T00:54:57.846Z,0.00
2018-06-10T00:55:57.845Z,0.00
2018-06-10T00:56:57.843Z,0.00
2018-06-10T00:57:57.843Z,0.00
2018-06-10T00:58:57.845Z,0.00
2018-06-10T00:59:57.843Z,0.00
2018-06-10T01:00:57.843Z,0.00
2018-06-10T01:01:57.847Z,0.00
2018-06-10T01:02:57.842Z,0.00
2018-06-10T01:03:57.838Z,0.00
2018-06-10T01:04:57.836Z,0.00
2018-06-10T01:05:57.836Z,0.00
2018-06-10T01:06:57.835Z,0.00
2018-06-10T01:07:57.834Z,0.00
2018-06-10T01:08:57.881Z,0.00
2018-06-10T01:09:57.833Z,0.00
2018-06-10T01:10:57.832Z,0.00
2018-06-10T01:11:57.831Z,0.00
2018-06-10T01:12:57.829Z,0.00
2018-06-10T01:13:57.829Z,0.00
2018-06-10T01:14:57.829Z,0.00
2018-06-10T01:15:57.828Z,0.00
2018-06-10T01:16:57.826Z,0.00
2018-06-10T01:17:57.826Z,0.00
2018-06-10T01:18:57.827Z,0.00
2018-06-10T01:19:57.827Z,0.00
2018-06-10T01:20:57.830Z,0.00
2018-06-10T01:21:57.826Z,0.00
2018-06-10T01:22:57.823Z,0.00
2018-06-10T01:23:57.822Z,0.00
2018-06-10T01:24:57.823Z,0.00
2018-06-10T01:25:57.820Z,0.00
2018-06-10T01:26:57.819Z,0.00
2018-06-10T01:27:57.820Z,0.00
2018-06-10T01:28:57.822Z,0.00
2018-06-10T01:29:57.817Z,0.00
2018-06-10T01:30:57.817Z,0.00
2018-06-10T01:31:57.820Z,0.00
2018-06-10T01:32:57.815Z,0.00
2018-06-10T01:33:57.819Z,0.00
2018-06-10T01:34:57.814Z,0.00
2018-06-10T01:35:57.814Z,0.00
2018-06-10T01:36:57.812Z,0.00
2018-06-10T01:37:57.813Z,0.00
2018-06-10T01:38:57.811Z,0.00
2018-06-10T01:39:57.817Z,0.00
2018-06-10T01:40:57.810Z,0.00
2018-06-10T01:41:57.809Z,0.00
2018-06-10T01:42:57.809Z,0.00
2018-06-10T01:43:57.810Z,0.00
2018-06-10T01:44:57.807Z,0.00
2018-06-10T01:45:57.811Z,0.00
2018-06-10T01:46:57.813Z,0.00
2018-06-10T01:47:57.811Z,0.00
2018-06-10T01:48:57.809Z,0.00
2018-06-10T01:49:57.804Z,0.00
2018-06-10T01:50:57.804Z,0.00
2018-06-10T01:51:57.805Z,0.00
2018-06-10T01:52:57.803Z,0.00
2018-06-10T01:53:57.806Z,0.00
2018-06-10T01:54:57.807Z,0.00
2018-06-10T01:55:57.806Z,0.00
2018-06-10T01:56:57.803Z,0.00
2018-06-10T01:57:57.805Z,0.00
2018-06-10T01:58:57.809Z,0.00
2018-06-10T01:59:57.804Z,0.00
2018-06-10T02:00:57.803Z,0.00
2018-06-10T02:01:57.798Z,0.00
2018-06-10T02:02:57.798Z,0.00
2018-06-10T02:03:57.801Z,0.00
2018-06-10T02:04:57.798Z,0.00
2018-06-10T02:05:57.804Z,0.00
2018-06-10T02:06:57.802Z,0.00
2018-06-10T02:07:57.801Z,0.00
2018-06-10T02:08:57.799Z,0.00
2018-06-10T02:09:57.796Z,0.00
2018-06-10T02:10:57.794Z,0.00
2018-06-10T02:11:57.799Z,0.00
2018-06-10T02:12:57.801Z,0.00
2018-06-10T02:13:57.793Z,0.00
2018-06-10T02:14:57.793Z,0.00
2018-06-10T02:15:57.793Z,0.00
2018-06-10T02:16:57.792Z,0.00
2018-06-10T02:17:57.795Z,0.00
2018-06-10T02:18:57.796Z,0.00
2018-06-10T02:19:57.795Z,0.00
2018-06-10T02:20:57.794Z,0.00
2018-06-10T02:21:57.790Z,0.00
2018-06-10T02:22:57.789Z,0.00
2018-06-10T02:23:57.791Z,0.00
2018-06-10T02:24:57.788Z,0.00
2018-06-10T02:25:57.792Z,0.00
2018-06-10T02:26:57.792Z,0.00
2018-06-10T02:27:57.787Z,0.00
2018-06-10T02:28:57.787Z,0.00
2018-06-10T02:29:57.790Z,0.00
2018-06-10T02:30:57.789Z,0.00
2018-06-10T02:31:57.792Z,0.00
2018-06-10T02:32:57.806Z,0.00
2018-06-10T02:33:57.784Z,0.00
2018-06-10T02:34:57.784Z,0.00
2018-06-10T02:35:57.784Z,0.00
2018-06-10T02:36:57.783Z,0.00
2018-06-10T02:37:57.789Z,0.00
2018-06-10T02:38:57.793Z,0.00
2018-06-10T02:39:57.785Z,0.00
2018-06-10T02:40:57.785Z,0.00
2018-06-10T02:41:57.780Z,0.00
2018-06-10T02:42:57.780Z,4.00
2018-06-10T02:43:57.784Z,4.00
2018-06-10T02:44:57.784Z,4.00
2018-06-10T02:45:57.778Z,0.00
2018-06-10T02:46:57.777Z,4.00
2018-06-10T02:47:57.785Z,4.00
2018-06-10T02:48:57.778Z,4.00
2018-06-10T02:49:57.782Z,8.00
2018-06-10T02:50:57.781Z,4.00
2018-06-10T02:51:57.781Z,8.00
2018-06-10T02:52:57.779Z,8.00
2018-06-10T02:53:57.776Z,8.00
2018-06-10T02:54:57.773Z,8.00
2018-06-10T02:55:57.772Z,12.00
2018-06-10T02:56:57.772Z,12.00
2018-06-10T02:57:57.776Z,12.00
2018-06-10T02:58:57.774Z,16.00
2018-06-10T02:59:57.770Z,20.00
2018-06-10T03:00:57.768Z,20.00
2018-06-10T03:01:57.777Z,24.00
2018-06-10T03:02:57.773Z,28.00
2018-06-10T03:03:57.772Z,28.00
2018-06-10T03:04:57.771Z,32.00
2018-06-10T03:05:57.765Z,36.00
2018-06-10T03:06:57.766Z,40.00
2018-06-10T03:07:57.803Z,44.00
2018-06-10T03:08:57.764Z,44.00
2018-06-10T03:09:57.768Z,48.00
2018-06-10T03:10:57.766Z,56.00
2018-06-10T03:11:57.769Z,56.00
2018-06-10T03:12:57.765Z,64.00
2018-06-10T03:13:57.761Z,64.00
2018-06-10T03:14:57.761Z,72.00
2018-06-10T03:15:57.764Z,76.00
2018-06-10T03:16:57.765Z,84.00
2018-06-10T03:17:57.757Z,88.00
2018-06-10T03:18:57.756Z,92.00
2018-06-10T03:19:57.756Z,100.00
2018-06-10T03:20:57.755Z,108.00
2018-06-10T03:21:57.758Z,116.00
2018-06-10T03:22:57.757Z,124.00
2018-06-10T03:23:57.761Z,136.00
2018-06-10T03:24:57.755Z,148.00
2018-06-10T03:25:57.751Z,160.00
2018-06-10T03:26:57.753Z,172.00
2018-06-10T03:27:57.749Z,188.00
2018-06-10T03:28:57.753Z,204.00
2018-06-10T03:29:57.754Z,220.00
2018-06-10T03:30:57.752Z,248.00
2018-06-10T03:31:57.753Z,264.00
2018-06-10T03:32:57.747Z,288.00
2018-06-10T03:33:57.749Z,308.00
2018-06-10T03:34:57.749Z,332.00
2018-06-10T03:35:57.748Z,352.00
2018-06-10T03:36:57.747Z,372.00
2018-06-10T03:37:57.741Z,396.00
2018-06-10T03:38:57.741Z,420.00
2018-06-10T03:39:57.740Z,440.00
2018-06-10T03:40:57.739Z,460.00
2018-06-10T03:41:57.742Z,484.00
2018-06-10T03:42:57.743Z,500.00
2018-06-10T03:43:57.743Z,528.00
2018-06-10T03:44:57.741Z,544.00
2018-06-10T03:45:57.737Z,560.00
2018-06-10T03:46:57.735Z,580.00
2018-06-10T03:47:57.740Z,600.00
2018-06-10T03:48:57.739Z,624.00
2018-06-10T03:49:57.733Z,652.00
2018-06-10T03:50:57.733Z,680.00
2018-06-10T03:51:57.731Z,712.00
2018-06-10T03:52:57.733Z,744.00
2018-06-10T03:53:57.734Z,772.00
2018-06-10T03:54:57.733Z,792.00
2018-06-10T03:55:57.734Z,812.00
2018-06-10T03:56:57.731Z,836.00
2018-06-10T03:57:57.726Z,852.00
2018-06-10T03:58:57.726Z,876.00
2018-06-10T03:59:57.726Z,908.00
2018-06-10T04:00:57.725Z,944.00
2018-06-10T04:01:57.729Z,980.00
2018-06-10T04:02:57.729Z,1020.00
2018-06-10T04:03:57.723Z,1064.00
2018-06-10T04:04:57.721Z,1108.00
2018-06-10T04:05:57.729Z,1148.00
2018-06-10T04:06:57.726Z,1180.00
2018-06-10T04:07:57.724Z,1184.00
2018-06-10T04:08:57.723Z,1176.00
2018-06-10T04:09:57.719Z,1180.00
2018-06-10T04:10:57.718Z,1204.00
2018-06-10T04:11:57.717Z,1252.00
2018-06-10T04:12:57.717Z,1316.00
2018-06-10T04:13:57.722Z,1392.00
2018-06-10T04:14:57.722Z,1468.00
2018-06-10T04:15:57.719Z,1532.00
2018-06-10T04:16:57.718Z,1600.00
2018-06-10T04:17:57.713Z,1668.00
2018-06-10T04:18:57.715Z,1732.00
2018-06-10T04:19:57.717Z,1796.00
2018-06-10T04:20:57.715Z,1856.00
2018-06-10T04:21:57.711Z,1900.00
2018-06-10T04:22:57.712Z,1952.00
2018-06-10T04:23:57.711Z,2008.00
2018-06-10T04:24:57.709Z,2068.00
2018-06-10T04:25:57.715Z,2120.00
2018-06-10T04:26:57.715Z,2176.00
2018-06-10T04:27:57.714Z,2224.00
2018-06-10T04:28:57.713Z,2272.00
2018-06-10T04:29:57.707Z,2312.00
2018-06-10T04:30:57.706Z,2348.00
2018-06-10T04:31:57.706Z,2376.00
2018-06-10T04:32:57.707Z,2400.00
2018-06-10T04:33:57.711Z,2436.00
2018-06-10T04:34:57.709Z,2468.00
2018-06-10T04:35:57.705Z,2508.00
2018-06-10T04:36:57.703Z,2556.00
2018-06-10T04:37:57.707Z,2620.00
2018-06-10T04:38:57.708Z,2704.00
2018-06-10T04:39:57.709Z,2792.00
2018-06-10T04:40:57.707Z,2884.00
2018-06-10T04:41:57.703Z,2976.00
2018-06-10T04:42:57.702Z,3056.00
2018-06-10T04:43:57.702Z,3116.00
2018-06-10T04:44:57.701Z,3160.00
2018-06-10T04:45:57.704Z,3204.00
2018-06-10T04:46:57.705Z,3232.00
2018-06-10T04:47:57.709Z,3252.00
2018-06-10T04:48:57.704Z,3272.00
2018-06-10T04:49:57.700Z,3252.00
2018-06-10T04:50:57.700Z,3248.00
2018-06-10T04:51:57.707Z,3208.00
2018-06-10T04:52:57.730Z,3152.00
2018-06-10T04:53:57.698Z,3124.00
2018-06-10T04:54:57.698Z,3124.00
2018-06-10T04:55:57.702Z,3140.00
2018-06-10T04:56:57.697Z,3156.00
2018-06-10T04:57:57.703Z,3184.00
2018-06-10T04:58:57.702Z,3192.00
2018-06-10T04:59:57.702Z,3180.00
2018-06-10T05:00:57.701Z,3176.00
2018-06-10T05:01:57.697Z,3156.00
2018-06-10T05:02:57.699Z,3148.00
2018-06-10T05:03:57.696Z,3112.00
2018-06-10T05:04:57.696Z,3076.00
2018-06-10T05:05:57.700Z,3052.00
2018-06-10T05:06:57.700Z,3032.00
2018-06-10T05:07:57.696Z,3024.00
2018-06-10T05:08:57.695Z,3020.00
2018-06-10T05:09:57.700Z,3024.00
2018-06-10T05:10:57.702Z,3040.00
2018-06-10T05:11:57.702Z,3048.00
2018-06-10T05:12:57.699Z,3076.00
2018-06-10T05:13:57.695Z,3108.00
2018-06-10T05:14:57.697Z,3144.00
2018-06-10T05:15:57.700Z,3180.00
2018-06-10T05:16:57.699Z,3240.00
2018-06-10T05:17:57.697Z,3332.00
2018-06-10T05:18:57.695Z,3448.00
2018-06-10T05:19:57.747Z,3632.00
2018-06-10T05:20:57.695Z,3816.00
2018-06-10T05:21:57.700Z,4004.00
2018-06-10T05:22:57.700Z,4296.00
2018-06-10T05:23:57.697Z,4548.00
2018-06-10T05:24:57.695Z,4872.00
2018-06-10T05:25:57.700Z,5400.00
2018-06-10T05:26:57.701Z,6168.00
2018-06-10T05:27:57.700Z,7084.00
2018-06-10T05:28:57.700Z,7968.00
2018-06-10T05:29:57.700Z,8512.00
2018-06-10T05:30:57.698Z,8824.00
2018-06-10T05:31:57.699Z,9376.00
2018-06-10T05:32:57.697Z,9420.00
2018-06-10T05:33:57.703Z,9348.00
2018-06-10T05:34:57.703Z,8992.00
2018-06-10T05:35:57.705Z,8608.00
2018-06-10T05:36:57.710Z,8392.00
2018-06-10T05:37:57.703Z,8116.00
2018-06-10T05:38:57.703Z,8076.00
2018-06-10T05:39:57.710Z,8208.00
2018-06-10T05:40:57.709Z,8192.00
2018-06-10T05:41:57.705Z,8672.00
2018-06-10T05:42:57.707Z,9772.00
2018-06-10T05:43:57.708Z,10596.00
2018-06-10T05:44:57.708Z,10556.00
2018-06-10T05:45:57.717Z,11376.00
2018-06-10T05:46:57.717Z,11508.00
2018-06-10T05:47:57.720Z,11720.00
2018-06-10T05:48:57.720Z,12148.00
2018-06-10T05:49:57.719Z,11792.00
2018-06-10T05:50:57.720Z,11632.00
2018-06-10T05:51:57.726Z,10736.00
2018-06-10T05:52:57.724Z,9752.00
2018-06-10T05:53:57.733Z,8956.00
2018-06-10T05:54:57.735Z,8864.00
2018-06-10T05:55:57.739Z,8920.00
2018-06-10T05:56:57.735Z,8824.00
2018-06-10T05:57:57.741Z,8876.00
2018-06-10T05:58:57.744Z,8848.00
2018-06-10T05:59:57.747Z,8436.00
2018-06-10T06:00:57.749Z,8488.00
2018-06-10T06:01:57.747Z,8700.00
2018-06-10T06:02:57.749Z,9420.00
2018-06-10T06:03:57.754Z,9820.00
2018-06-10T06:04:57.755Z,11200.00
2018-06-10T06:05:57.761Z,11856.00
2018-06-10T06:06:57.764Z,12084.00
2018-06-10T06:07:57.768Z,12052.00
2018-06-10T06:08:57.773Z,11904.00
2018-06-10T06:09:57.768Z,11524.00
2018-06-10T06:10:57.771Z,11068.00
2018-06-10T06:11:57.779Z,11016.00
2018-06-10T06:12:57.780Z,11080.00
2018-06-10T06:13:57.782Z,11912.00
2018-06-10T06:14:57.781Z,12688.00
2018-06-10T06:15:57.785Z,12908.00
2018-06-10T06:16:57.787Z,12168.00
2018-06-10T06:17:57.794Z,9992.00
2018-06-10T06:18:57.799Z,8920.00
2018-06-10T06:19:57.802Z,8968.00
2018-06-10T06:20:57.803Z,9532.00
2018-06-10T06:21:57.803Z,10952.00
2018-06-10T06:22:57.805Z,12172.00
2018-06-10T06:23:57.809Z,12272.00
2018-06-10T06:24:57.811Z,11060.00
2018-06-10T06:25:57.818Z,9884.00
2018-06-10T06:26:57.822Z,10336.00
2018-06-10T06:27:57.866Z,10808.00
2018-06-10T06:28:57.823Z,10208.00
2018-06-10T06:29:57.831Z,9432.00
2018-06-10T06:30:57.835Z,8448.00
2018-06-10T06:31:57.839Z,7212.00
2018-06-10T06:32:57.840Z,7032.00
2018-06-10T06:33:57.839Z,7252.00
2018-06-10T06:34:57.842Z,7748.00
2018-06-10T06:35:57.849Z,7824.00
2018-06-10T06:36:57.848Z,8276.00
2018-06-10T06:37:57.857Z,9516.00
2018-06-10T06:38:57.859Z,10216.00
2018-06-10T06:39:57.862Z,10196.00
2018-06-10T06:40:57.864Z,10300.00
2018-06-10T06:41:57.863Z,10628.00
2018-06-10T06:42:57.866Z,11548.00
2018-06-10T06:43:57.876Z,11892.00
2018-06-10T06:44:57.875Z,11916.00
2018-06-10T06:45:57.880Z,11464.00
2018-06-10T06:46:57.878Z,10468.00
2018-06-10T06:47:57.881Z,9732.00
2018-06-10T06:48:57.886Z,9216.00
2018-06-10T06:49:57.892Z,8520.00
2018-06-10T06:50:57.894Z,7552.00
2018-06-10T06:51:57.900Z,7268.00
2018-06-10T06:52:57.902Z,7660.00
2018-06-10T06:53:57.900Z,8192.00
2018-06-10T06:54:57.902Z,8408.00
2018-06-10T06:55:57.910Z,8508.00
2018-06-10T06:56:57.909Z,8400.00
2018-06-10T06:57:57.933Z,8124.00
2018-06-10T06:58:57.919Z,6656.00
2018-06-10T06:59:57.918Z,5720.00
2018-06-10T07:00:57.921Z,5452.00
2018-06-10T07:01:57.928Z,5028.00
2018-06-10T07:02:57.931Z,5064.00
2018-06-10T07:03:57.936Z,4980.00
2018-06-10T07:04:57.937Z,4952.00
2018-06-10T07:05:57.936Z,4976.00
2018-06-10T07:06:57.939Z,5276.00
2018-06-10T07:07:57.942Z,5480.00
2018-06-10T07:08:57.945Z,5860.00
2018-06-10T07:09:57.953Z,6420.00
2018-06-10T07:10:57.955Z,6728.00
2018-06-10T07:11:57.965Z,6744.00
2018-06-10T07:12:57.960Z,6632.00
2018-06-10T07:13:57.959Z,6588.00
2018-06-10T07:14:57.962Z,6564.00
2018-06-10T07:15:57.973Z,6376.00
2018-06-10T07:16:57.973Z,6156.00
2018-06-10T07:17:57.970Z,6220.00
2018-06-10T07:18:57.971Z,6340.00
2018-06-10T07:19:58.027Z,6796.00
2018-06-10T07:20:57.976Z,7052.00
2018-06-10T07:21:57.984Z,6372.00
2018-06-10T07:22:57.987Z,5356.00
2018-06-10T07:23:57.988Z,4820.00
2018-06-10T07:24:57.991Z,4576.00
2018-06-10T07:25:57.988Z,3976.00
2018-06-10T07:26:57.991Z,3684.00
2018-06-10T07:27:57.995Z,3668.00
2018-06-10T07:28:57.998Z,3544.00
2018-06-10T07:29:58.004Z,3520.00
2018-06-10T07:30:58.007Z,3368.00
2018-06-10T07:31:58.005Z,3180.00
2018-06-10T07:32:58.006Z,3420.00
2018-06-10T07:33:58.013Z,3844.00
2018-06-10T07:34:58.016Z,4444.00
2018-06-10T07:35:58.017Z,5212.00
2018-06-10T07:36:58.021Z,6048.00
2018-06-10T07:37:58.019Z,6444.00
2018-06-10T07:38:58.020Z,6784.00
2018-06-10T07:39:58.022Z,7132.00
2018-06-10T07:40:58.027Z,6840.00
2018-06-10T07:41:58.034Z,6180.00
2018-06-10T07:42:58.032Z,5816.00
2018-06-10T07:43:58.036Z,5764.00
2018-06-10T07:44:58.037Z,5904.00
2018-06-10T07:45:58.035Z,6624.00
2018-06-10T07:46:58.036Z,7900.00
2018-06-10T07:47:58.043Z,9056.00
2018-06-10T07:48:58.045Z,9808.00
2018-06-10T07:49:58.042Z,9836.00
2018-06-10T07:50:58.053Z,9540.00
2018-06-10T07:51:58.049Z,9228.00
2018-06-10T07:52:58.052Z,9248.00
2018-06-10T07:53:58.055Z,8708.00
2018-06-10T07:54:58.057Z,7988.00
2018-06-10T07:55:58.059Z,7732.00
2018-06-10T07:56:58.061Z,7740.00
2018-06-10T07:57:58.060Z,7816.00
2018-06-10T07:58:58.062Z,7780.00
2018-06-10T07:59:58.065Z,7520.00
2018-06-10T08:00:58.067Z,7324.00
2018-06-10T08:01:58.075Z,7696.00
2018-06-10T08:02:58.077Z,8172.00
2018-06-10T08:03:58.075Z,7732.00
2018-06-10T08:04:58.076Z,6400.00
2018-06-10T08:05:58.084Z,6852.00
2018-06-10T08:06:58.086Z,7176.00
2018-06-10T08:07:58.089Z,7532.00
2018-06-10T08:08:58.091Z,7712.00
2018-06-10T08:09:58.088Z,8168.00
2018-06-10T08:10:58.092Z,8620.00
2018-06-10T08:11:58.113Z,9176.00
2018-06-10T08:12:58.097Z,9672.00
2018-06-10T08:13:58.104Z,9404.00
2018-06-10T08:14:58.107Z,8956.00
2018-06-10T08:15:58.111Z,8784.00
2018-06-10T08:16:58.113Z,9012.00
2018-06-10T08:17:58.110Z,9808.00
2018-06-10T08:18:58.113Z,10444.00
2018-06-10T08:19:58.121Z,10948.00
2018-06-10T08:20:58.125Z,11000.00
2018-06-10T08:21:58.124Z,12168.00
2018-06-10T08:22:58.127Z,12192.00
2018-06-10T08:23:58.128Z,11468.00
2018-06-10T08:24:58.131Z,13016.00
2018-06-10T08:25:58.138Z,16640.00
2018-06-10T08:26:58.145Z,19264.00
2018-06-10T08:27:58.146Z,23264.00
2018-06-10T08:28:58.148Z,34208.00
2018-06-10T08:29:58.147Z,32960.00
2018-06-10T08:30:58.154Z,33216.00
2018-06-10T08:31:58.178Z,38208.00
2018-06-10T08:32:58.159Z,28096.00
2018-06-10T08:33:58.168Z,24896.00
2018-06-10T08:34:58.172Z,26688.00
2018-06-10T08:35:58.173Z,25824.00
2018-06-10T08:36:58.179Z,30752.00
2018-06-10T08:37:58.188Z,30944.00
2018-06-10T08:38:58.195Z,27744.00
2018-06-10T08:39:58.202Z,33280.00
2018-06-10T08:40:58.206Z,36832.00
2018-06-10T08:41:58.207Z,32544.00
2018-06-10T08:42:58.214Z,31296.00
2018-06-10T08:43:58.309Z,29504.00
2018-06-10T08:44:58.227Z,23104.00
2018-06-10T08:45:58.240Z,24640.00
2018-06-10T08:46:58.247Z,26368.00
2018-06-10T08:47:58.257Z,22816.00
2018-06-10T08:48:58.262Z,21984.00
2018-06-10T08:49:58.264Z,20576.00
2018-06-10T08:50:58.273Z,17280.00
2018-06-10T08:51:58.286Z,14544.00
2018-06-10T08:52:58.291Z,12420.00
2018-06-10T08:53:58.297Z,11436.00
2018-06-10T08:54:58.304Z,12220.00
2018-06-10T08:55:58.312Z,14844.00
2018-06-10T08:56:58.376Z,17888.00
2018-06-10T08:57:58.333Z,21440.00
2018-06-10T08:58:58.344Z,31168.00
2018-06-10T08:59:58.348Z,36000.00
2018-06-10T09:00:58.355Z,37536.00
2018-06-10T09:01:58.357Z,33472.00
2018-06-10T09:02:58.365Z,38560.00
2018-06-10T09:03:58.373Z,40640.00
2018-06-10T09:04:58.386Z,36416.00
2018-06-10T09:05:58.394Z,28160.00
2018-06-10T09:06:58.402Z,21568.00
2018-06-10T09:07:58.407Z,20128.00
2018-06-10T09:08:58.415Z,20896.00
2018-06-10T09:09:58.428Z,21728.00
2018-06-10T09:10:58.444Z,23296.00
2018-06-10T09:11:58.451Z,33760.00
2018-06-10T09:12:58.460Z,30304.00
2018-06-10T09:13:58.465Z,30208.00
2018-06-10T09:14:58.472Z,34432.00
2018-06-10T09:15:58.480Z,37888.00
2018-06-10T09:16:58.489Z,31328.00
2018-06-10T09:17:58.503Z,29184.00
2018-06-10T09:18:58.514Z,30112.00
2018-06-10T09:19:58.523Z,29696.00
2018-06-10T09:20:58.532Z,34176.00
2018-06-10T09:21:58.537Z,38144.00
2018-06-10T09:22:58.548Z,31168.00
2018-06-10T09:23:58.563Z,30976.00
2018-06-10T09:24:58.573Z,26976.00
2018-06-10T09:25:58.577Z,25856.00
2018-06-10T09:26:58.588Z,27968.00
2018-06-10T09:27:58.599Z,27872.00
2018-06-10T09:28:58.612Z,23200.00
2018-06-10T09:29:58.625Z,22464.00
2018-06-10T09:30:58.632Z,20960.00
2018-06-10T09:31:58.644Z,33408.00
2018-06-10T09:32:58.653Z,33760.00
2018-06-10T09:33:58.661Z,35200.00
2018-06-10T09:34:58.669Z,24640.00
2018-06-10T09:35:58.680Z,21088.00
2018-06-10T09:36:58.689Z,21184.00
2018-06-10T09:37:58.704Z,20992.00
2018-06-10T09:38:58.715Z,39648.00
2018-06-10T09:39:58.721Z,33088.00
2018-06-10T09:40:58.732Z,27488.00
2018-06-10T09:41:58.762Z,14668.00
2018-06-10T09:42:58.759Z,12800.00
2018-06-10T09:43:58.769Z,14584.00
2018-06-10T09:44:58.779Z,12100.00
2018-06-10T09:45:58.785Z,12580.00
2018-06-10T09:46:58.795Z,12836.00
2018-06-10T09:47:58.805Z,13052.00
2018-06-10T09:48:58.814Z,13380.00
2018-06-10T09:49:58.831Z,14452.00
2018-06-10T09:50:58.840Z,16672.00
2018-06-10T09:51:58.849Z,19424.00
2018-06-10T09:52:58.858Z,39264.00
2018-06-10T09:53:58.866Z,32288.00
2018-06-10T09:54:58.872Z,41248.00
2018-06-10T09:55:58.886Z,20416.00
2018-06-10T09:56:58.894Z,17568.00
2018-06-10T09:57:58.899Z,14588.00
2018-06-10T09:58:58.909Z,13580.00
2018-06-10T09:59:58.920Z,12852.00
2018-06-10T10:00:58.927Z,12076.00
2018-06-10T10:01:58.942Z,11596.00
2018-06-10T10:02:58.952Z,11468.00
2018-06-10T10:03:58.960Z,11544.00
2018-06-10T10:04:58.968Z,11896.00
2018-06-10T10:05:58.972Z,12556.00
2018-06-10T10:06:58.984Z,13476.00
2018-06-10T10:07:58.991Z,14012.00
2018-06-10T10:08:58.998Z,14660.00
2018-06-10T10:09:59.010Z,15112.00
2018-06-10T10:10:59.019Z,15052.00
2018-06-10T10:11:59.023Z,14992.00
2018-06-10T10:12:59.030Z,15224.00
2018-06-10T10:13:59.042Z,15764.00
2018-06-10T10:14:59.054Z,16960.00
2018-06-10T10:15:59.061Z,18464.00
2018-06-10T10:16:59.067Z,20704.00
2018-06-10T10:17:59.069Z,24032.00
2018-06-10T10:18:59.078Z,32704.00
2018-06-10T10:19:59.085Z,43424.00
2018-06-10T10:20:59.091Z,51200.00
2018-06-10T10:21:59.104Z,39232.00
2018-06-10T10:22:59.113Z,40704.00
2018-06-10T10:23:59.120Z,46496.00
2018-06-10T10:24:59.129Z,35680.00
2018-06-10T10:25:59.133Z,41312.00
2018-06-10T10:26:59.141Z,52416.00
2018-06-10T10:27:59.156Z,52352.00
2018-06-10T10:28:59.164Z,52832.00
2018-06-10T10:29:59.173Z,52896.00
2018-06-10T10:30:59.181Z,48352.00
2018-06-10T10:31:59.192Z,49920.00
2018-06-10T10:32:59.200Z,52384.00
2018-06-10T10:33:59.217Z,49248.00
2018-06-10T10:34:59.233Z,47584.00
2018-06-10T10:35:59.239Z,47776.00
2018-06-10T10:36:59.250Z,48416.00
2018-06-10T10:37:59.259Z,52416.00
2018-06-10T10:38:59.272Z,51232.00
2018-06-10T10:39:59.289Z,48864.00
2018-06-10T10:40:59.298Z,46208.00
2018-06-10T10:41:59.317Z,46464.00
2018-06-10T10:42:59.330Z,47520.00
2018-06-10T10:43:59.339Z,46016.00
2018-06-10T10:44:59.354Z,45440.00
2018-06-10T10:45:59.376Z,44096.00
2018-06-10T10:46:59.386Z,42976.00
2018-06-10T10:47:59.402Z,42496.00
2018-06-10T10:48:59.477Z,43488.00
2018-06-10T10:49:59.424Z,43360.00
2018-06-10T10:50:59.440Z,43328.00
2018-06-10T10:51:59.456Z,44960.00
2018-06-10T10:52:59.472Z,48256.00
2018-06-10T10:53:59.489Z,49440.00
2018-06-10T10:54:59.503Z,50432.00
2018-06-10T10:55:59.536Z,48416.00
2018-06-10T10:56:59.534Z,45696.00
2018-06-10T10:57:59.544Z,45376.00
2018-06-10T10:58:59.560Z,35488.00
2018-06-10T10:59:59.580Z,40832.00
2018-06-10T11:00:59.596Z,31744.00
2018-06-10T11:01:59.633Z,25088.00
2018-06-10T11:02:59.621Z,24768.00
2018-06-10T11:03:59.636Z,26976.00
2018-06-10T11:04:59.650Z,36928.00
2018-06-10T11:05:59.671Z,25344.00
2018-06-10T11:06:59.685Z,19136.00
2018-06-10T11:07:59.700Z,15520.00
2018-06-10T11:08:59.716Z,12840.00
2018-06-10T11:09:59.728Z,12472.00
2018-06-10T11:10:59.739Z,12908.00
2018-06-10T11:11:59.759Z,12768.00
2018-06-10T11:12:59.770Z,12320.00
2018-06-10T11:13:59.785Z,12260.00
2018-06-10T11:14:59.800Z,11800.00
2018-06-10T11:15:59.808Z,10596.00
2018-06-10T11:16:59.820Z,9660.00
2018-06-10T11:17:59.838Z,9204.00
2018-06-10T11:18:59.850Z,9332.00
2018-06-10T11:19:59.884Z,11184.00
2018-06-10T11:20:59.873Z,16064.00
2018-06-10T11:21:59.885Z,18112.00
2018-06-10T11:22:59.892Z,20960.00
2018-06-10T11:23:59.911Z,23136.00
2018-06-10T11:24:59.916Z,24736.00
2018-06-10T11:25:59.930Z,25760.00
2018-06-10T11:26:59.985Z,25760.00
2018-06-10T11:27:59.956Z,23456.00
2018-06-10T11:28:59.963Z,23392.00
2018-06-10T11:29:59.967Z,22880.00
2018-06-10T11:30:59.978Z,21632.00
2018-06-10T11:31:59.994Z,21344.00
2018-06-10T11:33:00.004Z,22848.00
2018-06-10T11:34:00.010Z,24256.00
2018-06-10T11:35:00.031Z,24992.00
2018-06-10T11:36:00.029Z,24800.00
2018-06-10T11:37:00.040Z,24832.00
2018-06-10T11:38:00.052Z,24992.00
2018-06-10T11:39:00.063Z,24672.00
2018-06-10T11:40:00.074Z,21440.00
2018-06-10T11:41:00.082Z,20032.00
2018-06-10T11:42:00.088Z,20064.00
2018-06-10T11:43:00.097Z,18208.00
2018-06-10T11:44:00.109Z,16652.00
2018-06-10T11:45:00.122Z,15920.00
2018-06-10T11:46:00.129Z,16132.00
2018-06-10T11:47:00.138Z,16180.00
2018-06-10T11:48:00.143Z,17792.00
2018-06-10T11:49:00.152Z,20320.00
2018-06-10T11:50:00.166Z,22016.00
2018-06-10T11:51:00.174Z,23072.00
2018-06-10T11:52:00.219Z,23616.00
2018-06-10T11:53:00.194Z,22848.00
2018-06-10T11:54:00.197Z,21056.00
2018-06-10T11:55:00.249Z,18976.00
2018-06-10T11:56:00.216Z,16160.00
2018-06-10T11:57:00.223Z,14828.00
2018-06-10T11:58:00.315Z,14400.00
2018-06-10T11:59:00.246Z,13916.00
2018-06-10T12:00:00.256Z,15204.00
2018-06-10T12:01:00.263Z,16864.00
2018-06-10T12:02:00.355Z,18272.00
2018-06-10T12:03:00.276Z,20224.00
2018-06-10T12:04:00.290Z,19552.00
2018-06-10T12:05:00.298Z,18912.00
2018-06-10T12:06:00.303Z,20384.00
2018-06-10T12:07:00.311Z,22112.00
2018-06-10T12:08:00.325Z,22272.00
2018-06-10T12:09:00.329Z,22016.00
2018-06-10T12:10:00.341Z,21760.00
2018-06-10T12:11:00.351Z,21696.00
2018-06-10T12:12:00.361Z,21408.00
2018-06-10T12:13:00.368Z,21024.00
2018-06-10T12:14:00.371Z,20992.00
2018-06-10T12:15:00.380Z,21344.00
2018-06-10T12:16:00.390Z,21696.00
2018-06-10T12:17:00.402Z,21856.00